sensor_id;sensor_type;location;lat;lon;timestamp;P1;durP1;ratioP1;P2;durP2;ratioP2
83429;SDS011;73362;50.952;6.952;2024-01-15T00:01:15;27.77;;;14.17;;
83429;SDS011;73362;50.952;6.952;2024-01-15T00:03:43;30.67;;;14.43;;
83429;SDS011;73362;50.952;6.952;2024-01-15T00:06:11;31.67;;;14.60;;
83429;SDS011;73362;50.952;6.952;2024-01-15T00:08:39;35.60;;;17.17;;
83429;SDS011;73362;50.952;6.952;2024-01-15T00:11:07;29.27;;;12.87;;
83429;SDS011;73362;50.952;6.952;2024-01-15T00:13:35;32.93;;;15.43;;
83429;SDS011;73362;50.952;6.952;2024-01-15T00:16:04;29.90;;;14.70;;
83429;SDS011;73362;50.952;6.952;2024-01-15T00:18:31;32.17;;;14.93;;
83429;SDS011;73362;50.952;6.952;2024-01-15T00:20:59;30.40;;;15.07;;
83429;SDS011;73362;50.952;6.952;2024-01-15T00:23:27;30.77;;;14.37;;
83429;SDS011;73362;50.952;6.952;2024-01-15T00:25:55;32.77;;;14.57;;
83429;SDS011;73362;50.952;6.952;2024-01-15T00:28:23;31.00;;;14.87;;
83429;SDS011;73362;50.952;6.952;2024-01-15T00:30:51;32.83;;;15.03;;
83429;SDS011;73362;50.952;6.952;2024-01-15T00:33:19;30.73;;;14.70;;
83429;SDS011;73362;50.952;6.952;2024-01-15T00:35:47;33.13;;;15.60;;
83429;SDS011;73362;50.952;6.952;2024-01-15T00:38:15;34.63;;;15.90;;
83429;SDS011;73362;50.952;6.952;2024-01-15T00:40:43;34.70;;;14.60;;
83429;SDS011;73362;50.952;6.952;2024-01-15T00:43:11;30.90;;;14.87;;
83429;SDS011;73362;50.952;6.952;2024-01-15T00:45:39;33.17;;;15.13;;
83429;SDS011;73362;50.952;6.952;2024-01-15T00:48:07;32.80;;;16.77;;
83429;SDS011;73362;50.952;6.952;2024-01-15T00:50:36;36.80;;;17.10;;
83429;SDS011;73362;50.952;6.952;2024-01-15T00:53:04;37.23;;;17.10;;
83429;SDS011;73362;50.952;6.952;2024-01-15T00:55:32;34.77;;;15.10;;
83429;SDS011;73362;50.952;6.952;2024-01-15T00:58:00;39.97;;;16.87;;
83429;SDS011;73362;50.952;6.952;2024-01-15T01:00:28;34.07;;;17.13;;
83429;SDS011;73362;50.952;6.952;2024-01-15T01:02:56;33.03;;;15.80;;
83429;SDS011;73362;50.952;6.952;2024-01-15T01:05:25;32.93;;;15.23;;
83429;SDS011;73362;50.952;6.952;2024-01-15T01:07:53;33.23;;;16.23;;
83429;SDS011;73362;50.952;6.952;2024-01-15T01:10:21;30.63;;;15.13;;
83429;SDS011;73362;50.952;6.952;2024-01-15T01:12:49;41.53;;;17.17;;
83429;SDS011;73362;50.952;6.952;2024-01-15T01:15:17;32.83;;;15.73;;
83429;SDS011;73362;50.952;6.952;2024-01-15T01:17:45;36.43;;;16.07;;
83429;SDS011;73362;50.952;6.952;2024-01-15T01:20:13;37.43;;;17.50;;
83429;SDS011;73362;50.952;6.952;2024-01-15T01:22:41;33.00;;;16.13;;
83429;SDS011;73362;50.952;6.952;2024-01-15T01:25:09;35.87;;;16.87;;
83429;SDS011;73362;50.952;6.952;2024-01-15T01:27:37;34.07;;;15.53;;
83429;SDS011;73362;50.952;6.952;2024-01-15T01:30:05;34.17;;;16.57;;
83429;SDS011;73362;50.952;6.952;2024-01-15T01:32:33;34.90;;;16.83;;
83429;SDS011;73362;50.952;6.952;2024-01-15T01:35:02;31.73;;;16.03;;
83429;SDS011;73362;50.952;6.952;2024-01-15T01:37:30;34.77;;;16.67;;
83429;SDS011;73362;50.952;6.952;2024-01-15T01:39:58;29.70;;;14.60;;
83429;SDS011;73362;50.952;6.952;2024-01-15T01:42:26;31.57;;;15.20;;
83429;SDS011;73362;50.952;6.952;2024-01-15T01:44:54;30.83;;;15.13;;
83429;SDS011;73362;50.952;6.952;2024-01-15T01:47:22;30.97;;;14.97;;
83429;SDS011;73362;50.952;6.952;2024-01-15T01:49:50;32.40;;;15.87;;
83429;SDS011;73362;50.952;6.952;2024-01-15T01:52:18;36.13;;;16.80;;
83429;SDS011;73362;50.952;6.952;2024-01-15T01:54:46;36.00;;;16.33;;
83429;SDS011;73362;50.952;6.952;2024-01-15T01:57:14;34.73;;;16.57;;
83429;SDS011;73362;50.952;6.952;2024-01-15T01:59:42;35.97;;;15.53;;
83429;SDS011;73362;50.952;6.952;2024-01-15T02:02:10;32.27;;;15.10;;
83429;SDS011;73362;50.952;6.952;2024-01-15T02:04:38;30.47;;;14.67;;
83429;SDS011;73362;50.952;6.952;2024-01-15T02:07:06;35.53;;;15.17;;
83429;SDS011;73362;50.952;6.952;2024-01-15T02:09:34;29.73;;;14.67;;
83429;SDS011;73362;50.952;6.952;2024-01-15T02:12:02;35.67;;;15.47;;
83429;SDS011;73362;50.952;6.952;2024-01-15T02:14:30;28.10;;;14.53;;
83429;SDS011;73362;50.952;6.952;2024-01-15T02:16:58;34.20;;;15.87;;
83429;SDS011;73362;50.952;6.952;2024-01-15T02:19:26;31.27;;;15.73;;
83429;SDS011;73362;50.952;6.952;2024-01-15T02:21:55;34.03;;;16.67;;
83429;SDS011;73362;50.952;6.952;2024-01-15T02:24:23;28.77;;;14.77;;
83429;SDS011;73362;50.952;6.952;2024-01-15T02:26:52;29.10;;;15.63;;
83429;SDS011;73362;50.952;6.952;2024-01-15T02:29:20;33.93;;;15.80;;
83429;SDS011;73362;50.952;6.952;2024-01-15T02:31:48;35.33;;;16.83;;
83429;SDS011;73362;50.952;6.952;2024-01-15T02:34:16;31.97;;;14.67;;
83429;SDS011;73362;50.952;6.952;2024-01-15T02:36:44;30.23;;;15.77;;
83429;SDS011;73362;50.952;6.952;2024-01-15T02:39:12;31.60;;;15.70;;
83429;SDS011;73362;50.952;6.952;2024-01-15T02:41:40;28.80;;;14.30;;
83429;SDS011;73362;50.952;6.952;2024-01-15T02:44:08;36.33;;;16.43;;
83429;SDS011;73362;50.952;6.952;2024-01-15T02:46:36;36.47;;;15.17;;
83429;SDS011;73362;50.952;6.952;2024-01-15T02:49:04;29.63;;;12.57;;
83429;SDS011;73362;50.952;6.952;2024-01-15T02:51:32;30.60;;;14.87;;
83429;SDS011;73362;50.952;6.952;2024-01-15T02:54:00;29.70;;;14.73;;
83429;SDS011;73362;50.952;6.952;2024-01-15T02:56:28;33.90;;;15.73;;
83429;SDS011;73362;50.952;6.952;2024-01-15T02:58:56;30.60;;;14.97;;
83429;SDS011;73362;50.952;6.952;2024-01-15T03:01:24;25.63;;;13.27;;
83429;SDS011;73362;50.952;6.952;2024-01-15T03:03:52;31.00;;;14.77;;
83429;SDS011;73362;50.952;6.952;2024-01-15T03:06:20;28.60;;;15.00;;
83429;SDS011;73362;50.952;6.952;2024-01-15T03:08:48;31.33;;;15.23;;
83429;SDS011;73362;50.952;6.952;2024-01-15T03:11:16;30.23;;;14.37;;
83429;SDS011;73362;50.952;6.952;2024-01-15T03:13:44;37.30;;;16.20;;
83429;SDS011;73362;50.952;6.952;2024-01-15T03:16:12;28.47;;;13.27;;
83429;SDS011;73362;50.952;6.952;2024-01-15T03:18:41;28.50;;;14.27;;
83429;SDS011;73362;50.952;6.952;2024-01-15T03:21:09;27.50;;;13.93;;
83429;SDS011;73362;50.952;6.952;2024-01-15T03:23:37;30.17;;;15.13;;
83429;SDS011;73362;50.952;6.952;2024-01-15T03:26:05;28.50;;;14.03;;
83429;SDS011;73362;50.952;6.952;2024-01-15T03:28:33;31.67;;;13.03;;
83429;SDS011;73362;50.952;6.952;2024-01-15T03:31:01;27.77;;;14.03;;
83429;SDS011;73362;50.952;6.952;2024-01-15T03:33:29;26.43;;;13.43;;
83429;SDS011;73362;50.952;6.952;2024-01-15T03:35:57;25.70;;;14.40;;
83429;SDS011;73362;50.952;6.952;2024-01-15T03:38:27;27.03;;;14.33;;
83429;SDS011;73362;50.952;6.952;2024-01-15T03:40:53;29.10;;;14.17;;
83429;SDS011;73362;50.952;6.952;2024-01-15T03:43:21;27.80;;;14.80;;
83429;SDS011;73362;50.952;6.952;2024-01-15T03:45:49;32.30;;;14.10;;
83429;SDS011;73362;50.952;6.952;2024-01-15T03:48:17;28.70;;;14.77;;
83429;SDS011;73362;50.952;6.952;2024-01-15T03:50:45;31.93;;;15.50;;
83429;SDS011;73362;50.952;6.952;2024-01-15T03:53:13;27.53;;;14.43;;
83429;SDS011;73362;50.952;6.952;2024-01-15T03:55:41;31.77;;;16.40;;
83429;SDS011;73362;50.952;6.952;2024-01-15T03:58:09;36.10;;;15.17;;
83429;SDS011;73362;50.952;6.952;2024-01-15T04:00:37;30.10;;;15.37;;
83429;SDS011;73362;50.952;6.952;2024-01-15T04:03:05;29.10;;;14.13;;
83429;SDS011;73362;50.952;6.952;2024-01-15T04:05:33;31.43;;;15.17;;
83429;SDS011;73362;50.952;6.952;2024-01-15T04:08:01;33.13;;;15.73;;
83429;SDS011;73362;50.952;6.952;2024-01-15T04:10:29;25.57;;;13.93;;
83429;SDS011;73362;50.952;6.952;2024-01-15T04:12:57;32.90;;;15.33;;
83429;SDS011;73362;50.952;6.952;2024-01-15T04:15:25;30.10;;;14.47;;
83429;SDS011;73362;50.952;6.952;2024-01-15T04:17:54;32.27;;;15.67;;
83429;SDS011;73362;50.952;6.952;2024-01-15T04:20:22;30.27;;;14.77;;
83429;SDS011;73362;50.952;6.952;2024-01-15T04:22:50;30.50;;;15.67;;
83429;SDS011;73362;50.952;6.952;2024-01-15T04:25:18;33.03;;;15.60;;
83429;SDS011;73362;50.952;6.952;2024-01-15T04:27:46;31.63;;;15.10;;
83429;SDS011;73362;50.952;6.952;2024-01-15T04:30:14;26.10;;;13.63;;
83429;SDS011;73362;50.952;6.952;2024-01-15T04:32:42;29.30;;;15.10;;
83429;SDS011;73362;50.952;6.952;2024-01-15T04:35:10;29.97;;;14.87;;
83429;SDS011;73362;50.952;6.952;2024-01-15T04:37:39;26.80;;;13.53;;
83429;SDS011;73362;50.952;6.952;2024-01-15T04:40:06;24.90;;;14.20;;
83429;SDS011;73362;50.952;6.952;2024-01-15T04:42:34;27.70;;;13.67;;
83429;SDS011;73362;50.952;6.952;2024-01-15T04:45:02;27.23;;;13.67;;
83429;SDS011;73362;50.952;6.952;2024-01-15T04:47:30;27.13;;;14.23;;
83429;SDS011;73362;50.952;6.952;2024-01-15T04:49:58;26.80;;;12.83;;
83429;SDS011;73362;50.952;6.952;2024-01-15T04:52:26;24.67;;;12.43;;
83429;SDS011;73362;50.952;6.952;2024-01-15T04:54:54;25.80;;;13.23;;
83429;SDS011;73362;50.952;6.952;2024-01-15T04:57:22;19.60;;;10.50;;
83429;SDS011;73362;50.952;6.952;2024-01-15T04:59:51;22.23;;;11.93;;
83429;SDS011;73362;50.952;6.952;2024-01-15T05:02:19;22.07;;;11.87;;
83429;SDS011;73362;50.952;6.952;2024-01-15T05:04:47;21.60;;;11.90;;
83429;SDS011;73362;50.952;6.952;2024-01-15T05:07:15;18.87;;;11.23;;
83429;SDS011;73362;50.952;6.952;2024-01-15T05:09:43;25.93;;;11.93;;
83429;SDS011;73362;50.952;6.952;2024-01-15T05:12:11;24.07;;;11.50;;
83429;SDS011;73362;50.952;6.952;2024-01-15T05:14:39;22.73;;;12.07;;
83429;SDS011;73362;50.952;6.952;2024-01-15T05:17:07;19.93;;;10.90;;
83429;SDS011;73362;50.952;6.952;2024-01-15T05:19:35;22.10;;;11.80;;
83429;SDS011;73362;50.952;6.952;2024-01-15T05:22:03;20.00;;;12.07;;
83429;SDS011;73362;50.952;6.952;2024-01-15T05:24:31;25.20;;;12.83;;
83429;SDS011;73362;50.952;6.952;2024-01-15T05:26:59;21.97;;;11.43;;
83429;SDS011;73362;50.952;6.952;2024-01-15T05:29:27;21.17;;;11.90;;
83429;SDS011;73362;50.952;6.952;2024-01-15T05:31:55;23.20;;;12.13;;
83429;SDS011;73362;50.952;6.952;2024-01-15T05:34:23;21.07;;;9.93;;
83429;SDS011;73362;50.952;6.952;2024-01-15T05:36:51;20.37;;;10.70;;
83429;SDS011;73362;50.952;6.952;2024-01-15T05:39:19;20.47;;;10.37;;
83429;SDS011;73362;50.952;6.952;2024-01-15T05:41:47;18.13;;;10.43;;
83429;SDS011;73362;50.952;6.952;2024-01-15T05:44:15;18.63;;;10.63;;
83429;SDS011;73362;50.952;6.952;2024-01-15T05:46:43;19.90;;;10.80;;
83429;SDS011;73362;50.952;6.952;2024-01-15T05:49:11;18.70;;;10.60;;
83429;SDS011;73362;50.952;6.952;2024-01-15T05:51:39;22.43;;;10.73;;
83429;SDS011;73362;50.952;6.952;2024-01-15T05:54:07;19.83;;;10.90;;
83429;SDS011;73362;50.952;6.952;2024-01-15T05:56:35;19.50;;;10.57;;
83429;SDS011;73362;50.952;6.952;2024-01-15T05:59:03;19.97;;;9.77;;
83429;SDS011;73362;50.952;6.952;2024-01-15T06:01:31;17.83;;;10.30;;
83429;SDS011;73362;50.952;6.952;2024-01-15T06:03:59;19.73;;;10.77;;
83429;SDS011;73362;50.952;6.952;2024-01-15T06:06:27;21.00;;;11.20;;
83429;SDS011;73362;50.952;6.952;2024-01-15T06:08:56;18.80;;;10.37;;
83429;SDS011;73362;50.952;6.952;2024-01-15T06:11:29;19.77;;;10.37;;
83429;SDS011;73362;50.952;6.952;2024-01-15T06:13:52;17.30;;;10.17;;
83429;SDS011;73362;50.952;6.952;2024-01-15T06:16:20;16.97;;;10.37;;
83429;SDS011;73362;50.952;6.952;2024-01-15T06:18:48;17.07;;;10.23;;
83429;SDS011;73362;50.952;6.952;2024-01-15T06:21:17;16.90;;;11.00;;
83429;SDS011;73362;50.952;6.952;2024-01-15T06:23:46;21.27;;;12.13;;
83429;SDS011;73362;50.952;6.952;2024-01-15T06:26:14;20.47;;;11.90;;
83429;SDS011;73362;50.952;6.952;2024-01-15T06:28:43;17.80;;;10.40;;
83429;SDS011;73362;50.952;6.952;2024-01-15T06:31:11;19.73;;;10.87;;
83429;SDS011;73362;50.952;6.952;2024-01-15T06:33:39;21.63;;;10.90;;
83429;SDS011;73362;50.952;6.952;2024-01-15T06:36:07;22.90;;;11.03;;
83429;SDS011;73362;50.952;6.952;2024-01-15T06:38:35;19.27;;;10.97;;
83429;SDS011;73362;50.952;6.952;2024-01-15T06:41:03;19.57;;;11.90;;
83429;SDS011;73362;50.952;6.952;2024-01-15T06:43:31;18.00;;;11.47;;
83429;SDS011;73362;50.952;6.952;2024-01-15T06:45:59;19.03;;;11.70;;
83429;SDS011;73362;50.952;6.952;2024-01-15T06:48:27;19.57;;;11.13;;
83429;SDS011;73362;50.952;6.952;2024-01-15T06:50:55;19.20;;;11.53;;
83429;SDS011;73362;50.952;6.952;2024-01-15T06:53:23;19.27;;;11.33;;
83429;SDS011;73362;50.952;6.952;2024-01-15T06:55:51;22.43;;;10.80;;
83429;SDS011;73362;50.952;6.952;2024-01-15T06:58:19;19.47;;;11.40;;
83429;SDS011;73362;50.952;6.952;2024-01-15T07:00:47;20.37;;;12.00;;
83429;SDS011;73362;50.952;6.952;2024-01-15T07:03:16;19.90;;;12.07;;
83429;SDS011;73362;50.952;6.952;2024-01-15T07:05:44;22.57;;;11.97;;
83429;SDS011;73362;50.952;6.952;2024-01-15T07:08:12;19.53;;;12.07;;
83429;SDS011;73362;50.952;6.952;2024-01-15T07:10:40;21.00;;;12.50;;
83429;SDS011;73362;50.952;6.952;2024-01-15T07:13:08;20.40;;;11.87;;
83429;SDS011;73362;50.952;6.952;2024-01-15T07:15:36;24.07;;;12.50;;
83429;SDS011;73362;50.952;6.952;2024-01-15T07:18:05;21.30;;;11.90;;
83429;SDS011;73362;50.952;6.952;2024-01-15T07:20:33;20.17;;;11.73;;
83429;SDS011;73362;50.952;6.952;2024-01-15T07:23:01;23.43;;;12.87;;
83429;SDS011;73362;50.952;6.952;2024-01-15T07:25:29;18.50;;;10.53;;
83429;SDS011;73362;50.952;6.952;2024-01-15T07:27:57;18.73;;;11.30;;
83429;SDS011;73362;50.952;6.952;2024-01-15T07:30:25;18.73;;;10.83;;
83429;SDS011;73362;50.952;6.952;2024-01-15T07:32:53;20.03;;;10.97;;
83429;SDS011;73362;50.952;6.952;2024-01-15T07:35:21;19.87;;;11.17;;
83429;SDS011;73362;50.952;6.952;2024-01-15T07:37:49;21.43;;;11.53;;
83429;SDS011;73362;50.952;6.952;2024-01-15T07:40:17;19.90;;;10.83;;
83429;SDS011;73362;50.952;6.952;2024-01-15T07:42:45;18.33;;;10.53;;
83429;SDS011;73362;50.952;6.952;2024-01-15T07:45:13;21.70;;;11.57;;
83429;SDS011;73362;50.952;6.952;2024-01-15T07:47:41;22.10;;;11.90;;
83429;SDS011;73362;50.952;6.952;2024-01-15T07:50:10;18.30;;;11.23;;
83429;SDS011;73362;50.952;6.952;2024-01-15T07:52:39;19.30;;;11.73;;
83429;SDS011;73362;50.952;6.952;2024-01-15T07:55:06;20.43;;;11.10;;
83429;SDS011;73362;50.952;6.952;2024-01-15T07:57:34;17.10;;;11.73;;
83429;SDS011;73362;50.952;6.952;2024-01-15T08:00:03;20.60;;;11.90;;
83429;SDS011;73362;50.952;6.952;2024-01-15T08:02:30;19.63;;;10.97;;
83429;SDS011;73362;50.952;6.952;2024-01-15T08:04:58;26.50;;;11.63;;
83429;SDS011;73362;50.952;6.952;2024-01-15T08:07:26;23.03;;;12.43;;
83429;SDS011;73362;50.952;6.952;2024-01-15T08:09:54;24.50;;;12.43;;
83429;SDS011;73362;50.952;6.952;2024-01-15T08:12:22;22.67;;;13.07;;
83429;SDS011;73362;50.952;6.952;2024-01-15T08:14:50;25.67;;;13.60;;
83429;SDS011;73362;50.952;6.952;2024-01-15T08:17:18;23.07;;;12.47;;
83429;SDS011;73362;50.952;6.952;2024-01-15T08:19:46;24.10;;;13.77;;
83429;SDS011;73362;50.952;6.952;2024-01-15T08:22:14;22.93;;;12.60;;
83429;SDS011;73362;50.952;6.952;2024-01-15T08:24:43;26.00;;;13.40;;
83429;SDS011;73362;50.952;6.952;2024-01-15T08:27:10;24.07;;;12.97;;
83429;SDS011;73362;50.952;6.952;2024-01-15T08:29:38;26.57;;;13.10;;
83429;SDS011;73362;50.952;6.952;2024-01-15T08:32:06;23.27;;;13.23;;
83429;SDS011;73362;50.952;6.952;2024-01-15T08:34:34;19.47;;;12.53;;
83429;SDS011;73362;50.952;6.952;2024-01-15T08:37:02;25.77;;;13.57;;
83429;SDS011;73362;50.952;6.952;2024-01-15T08:39:30;22.10;;;12.93;;
83429;SDS011;73362;50.952;6.952;2024-01-15T08:41:58;25.37;;;12.93;;
83429;SDS011;73362;50.952;6.952;2024-01-15T08:44:26;22.27;;;13.57;;
83429;SDS011;73362;50.952;6.952;2024-01-15T08:46:54;21.33;;;12.70;;
83429;SDS011;73362;50.952;6.952;2024-01-15T08:49:23;23.97;;;13.50;;
83429;SDS011;73362;50.952;6.952;2024-01-15T08:51:51;18.70;;;11.40;;
83429;SDS011;73362;50.952;6.952;2024-01-15T08:54:19;25.13;;;13.57;;
83429;SDS011;73362;50.952;6.952;2024-01-15T08:56:47;24.97;;;13.20;;
83429;SDS011;73362;50.952;6.952;2024-01-15T08:59:15;22.73;;;13.23;;
83429;SDS011;73362;50.952;6.952;2024-01-15T09:01:43;22.97;;;12.83;;
83429;SDS011;73362;50.952;6.952;2024-01-15T09:04:11;21.17;;;12.10;;
83429;SDS011;73362;50.952;6.952;2024-01-15T09:06:39;21.37;;;13.17;;
83429;SDS011;73362;50.952;6.952;2024-01-15T09:09:07;19.20;;;12.50;;
83429;SDS011;73362;50.952;6.952;2024-01-15T09:11:35;19.20;;;11.97;;
83429;SDS011;73362;50.952;6.952;2024-01-15T09:14:03;21.57;;;11.60;;
83429;SDS011;73362;50.952;6.952;2024-01-15T09:16:31;20.07;;;12.00;;
83429;SDS011;73362;50.952;6.952;2024-01-15T09:18:59;20.40;;;11.73;;
83429;SDS011;73362;50.952;6.952;2024-01-15T09:21:27;19.03;;;12.67;;
83429;SDS011;73362;50.952;6.952;2024-01-15T09:23:55;19.30;;;11.43;;
83429;SDS011;73362;50.952;6.952;2024-01-15T09:26:23;17.27;;;11.07;;
83429;SDS011;73362;50.952;6.952;2024-01-15T09:28:51;15.13;;;10.73;;
83429;SDS011;73362;50.952;6.952;2024-01-15T09:31:19;16.23;;;10.97;;
83429;SDS011;73362;50.952;6.952;2024-01-15T09:33:47;17.13;;;10.10;;
83429;SDS011;73362;50.952;6.952;2024-01-15T09:36:15;16.77;;;10.07;;
83429;SDS011;73362;50.952;6.952;2024-01-15T09:38:43;16.70;;;11.03;;
83429;SDS011;73362;50.952;6.952;2024-01-15T09:41:11;16.63;;;10.43;;
83429;SDS011;73362;50.952;6.952;2024-01-15T09:43:39;13.07;;;9.17;;
83429;SDS011;73362;50.952;6.952;2024-01-15T09:46:08;16.77;;;9.30;;
83429;SDS011;73362;50.952;6.952;2024-01-15T09:48:36;16.00;;;8.60;;
83429;SDS011;73362;50.952;6.952;2024-01-15T09:51:04;11.90;;;8.43;;
83429;SDS011;73362;50.952;6.952;2024-01-15T09:53:32;9.83;;;7.00;;
83429;SDS011;73362;50.952;6.952;2024-01-15T09:56:00;12.37;;;7.97;;
83429;SDS011;73362;50.952;6.952;2024-01-15T09:58:28;10.70;;;7.40;;
83429;SDS011;73362;50.952;6.952;2024-01-15T10:00:56;8.63;;;6.83;;
83429;SDS011;73362;50.952;6.952;2024-01-15T10:03:24;8.90;;;6.30;;
83429;SDS011;73362;50.952;6.952;2024-01-15T10:05:52;8.33;;;6.33;;
83429;SDS011;73362;50.952;6.952;2024-01-15T10:08:20;8.97;;;6.37;;
83429;SDS011;73362;50.952;6.952;2024-01-15T10:10:48;8.87;;;7.00;;
83429;SDS011;73362;50.952;6.952;2024-01-15T10:13:17;9.53;;;6.87;;
83429;SDS011;73362;50.952;6.952;2024-01-15T10:23:45;7.60;;;5.50;;
83429;SDS011;73362;50.952;6.952;2024-01-15T10:26:14;7.67;;;5.80;;
83429;SDS011;73362;50.952;6.952;2024-01-15T10:28:42;7.27;;;5.23;;
83429;SDS011;73362;50.952;6.952;2024-01-15T10:31:10;5.83;;;5.20;;
83429;SDS011;73362;50.952;6.952;2024-01-15T10:33:38;5.67;;;4.30;;
83429;SDS011;73362;50.952;6.952;2024-01-15T10:36:07;7.43;;;4.60;;
83429;SDS011;73362;50.952;6.952;2024-01-15T10:38:34;5.80;;;4.47;;
83429;SDS011;73362;50.952;6.952;2024-01-15T10:41:02;6.77;;;4.20;;
83429;SDS011;73362;50.952;6.952;2024-01-15T10:43:30;6.80;;;4.63;;
83429;SDS011;73362;50.952;6.952;2024-01-15T10:45:59;6.00;;;4.70;;
83429;SDS011;73362;50.952;6.952;2024-01-15T10:48:27;5.43;;;4.20;;
83429;SDS011;73362;50.952;6.952;2024-01-15T10:50:55;5.27;;;4.40;;
83429;SDS011;73362;50.952;6.952;2024-01-15T10:53:23;5.60;;;4.33;;
83429;SDS011;73362;50.952;6.952;2024-01-15T10:55:51;5.47;;;4.50;;
83429;SDS011;73362;50.952;6.952;2024-01-15T10:58:20;6.20;;;4.80;;
83429;SDS011;73362;50.952;6.952;2024-01-15T11:00:47;6.40;;;4.87;;
83429;SDS011;73362;50.952;6.952;2024-01-15T11:03:15;6.57;;;4.93;;
83429;SDS011;73362;50.952;6.952;2024-01-15T11:05:43;5.87;;;4.43;;
83429;SDS011;73362;50.952;6.952;2024-01-15T11:08:11;6.70;;;3.90;;
83429;SDS011;73362;50.952;6.952;2024-01-15T11:10:41;5.37;;;3.70;;
83429;SDS011;73362;50.952;6.952;2024-01-15T11:13:09;4.80;;;3.80;;
83429;SDS011;73362;50.952;6.952;2024-01-15T11:18:10;4.83;;;3.50;;
83429;SDS011;73362;50.952;6.952;2024-01-15T11:20:39;3.47;;;3.17;;
83429;SDS011;73362;50.952;6.952;2024-01-15T11:23:07;3.50;;;3.10;;
83429;SDS011;73362;50.952;6.952;2024-01-15T11:25:36;4.90;;;3.07;;
83429;SDS011;73362;50.952;6.952;2024-01-15T11:28:04;5.43;;;3.77;;
83429;SDS011;73362;50.952;6.952;2024-01-15T11:30:32;3.40;;;3.10;;
83429;SDS011;73362;50.952;6.952;2024-01-15T11:33:00;5.00;;;3.30;;
83429;SDS011;73362;50.952;6.952;2024-01-15T11:35:47;3.80;;;3.50;;
83429;SDS011;73362;50.952;6.952;2024-01-15T11:37:56;4.20;;;3.80;;
83429;SDS011;73362;50.952;6.952;2024-01-15T11:42:58;4.80;;;4.17;;
83429;SDS011;73362;50.952;6.952;2024-01-15T11:45:26;5.83;;;4.17;;
83429;SDS011;73362;50.952;6.952;2024-01-15T11:48:10;4.10;;;3.70;;
83429;SDS011;73362;50.952;6.952;2024-01-15T11:50:40;4.50;;;4.07;;
83429;SDS011;73362;50.952;6.952;2024-01-15T11:53:13;5.47;;;4.40;;
83429;SDS011;73362;50.952;6.952;2024-01-15T11:55:38;4.83;;;4.43;;
83429;SDS011;73362;50.952;6.952;2024-01-15T11:58:07;5.40;;;4.63;;
83429;SDS011;73362;50.952;6.952;2024-01-15T12:00:39;7.27;;;5.40;;
83429;SDS011;73362;50.952;6.952;2024-01-15T12:03:04;9.10;;;5.47;;
83429;SDS011;73362;50.952;6.952;2024-01-15T12:05:31;8.37;;;6.00;;
83429;SDS011;73362;50.952;6.952;2024-01-15T12:07:59;6.77;;;6.07;;
83429;SDS011;73362;50.952;6.952;2024-01-15T12:10:27;8.73;;;6.43;;
83429;SDS011;73362;50.952;6.952;2024-01-15T12:12:58;8.03;;;6.40;;
83429;SDS011;73362;50.952;6.952;2024-01-15T12:15:26;8.07;;;6.30;;
83429;SDS011;73362;50.952;6.952;2024-01-15T12:17:55;9.47;;;6.40;;
83429;SDS011;73362;50.952;6.952;2024-01-15T12:20:22;9.90;;;6.60;;
83429;SDS011;73362;50.952;6.952;2024-01-15T12:22:50;12.03;;;7.47;;
83429;SDS011;73362;50.952;6.952;2024-01-15T12:25:18;13.20;;;6.90;;
83429;SDS011;73362;50.952;6.952;2024-01-15T12:27:46;11.20;;;6.87;;
83429;SDS011;73362;50.952;6.952;2024-01-15T12:30:15;10.80;;;7.27;;
83429;SDS011;73362;50.952;6.952;2024-01-15T12:32:43;10.73;;;6.30;;
83429;SDS011;73362;50.952;6.952;2024-01-15T12:35:11;12.97;;;6.60;;
83429;SDS011;73362;50.952;6.952;2024-01-15T12:37:39;8.40;;;5.80;;
83429;SDS011;73362;50.952;6.952;2024-01-15T12:40:07;14.13;;;5.63;;
83429;SDS011;73362;50.952;6.952;2024-01-15T12:42:36;9.23;;;5.17;;
83429;SDS011;73362;50.952;6.952;2024-01-15T12:45:05;8.80;;;5.63;;
83429;SDS011;73362;50.952;6.952;2024-01-15T12:47:32;7.47;;;5.33;;
83429;SDS011;73362;50.952;6.952;2024-01-15T12:50:00;8.50;;;5.37;;
83429;SDS011;73362;50.952;6.952;2024-01-15T12:52:29;10.03;;;5.47;;
83429;SDS011;73362;50.952;6.952;2024-01-15T12:54:56;8.90;;;5.70;;
83429;SDS011;73362;50.952;6.952;2024-01-15T12:57:24;8.77;;;5.40;;
83429;SDS011;73362;50.952;6.952;2024-01-15T12:59:54;10.07;;;5.17;;
83429;SDS011;73362;50.952;6.952;2024-01-15T13:02:20;10.30;;;5.43;;
83429;SDS011;73362;50.952;6.952;2024-01-15T13:04:48;10.40;;;4.93;;
83429;SDS011;73362;50.952;6.952;2024-01-15T13:07:16;5.77;;;4.40;;
83429;SDS011;73362;50.952;6.952;2024-01-15T13:09:44;8.03;;;4.10;;
83429;SDS011;73362;50.952;6.952;2024-01-15T13:12:13;11.60;;;4.63;;
83429;SDS011;73362;50.952;6.952;2024-01-15T13:14:42;8.97;;;4.17;;
83429;SDS011;73362;50.952;6.952;2024-01-15T13:17:10;7.93;;;4.17;;
83429;SDS011;73362;50.952;6.952;2024-01-15T13:19:38;6.07;;;4.20;;
83429;SDS011;73362;50.952;6.952;2024-01-15T13:22:06;6.00;;;3.90;;
83429;SDS011;73362;50.952;6.952;2024-01-15T13:24:34;4.80;;;3.20;;
83429;SDS011;73362;50.952;6.952;2024-01-15T13:27:02;5.77;;;4.17;;
83429;SDS011;73362;50.952;6.952;2024-01-15T13:29:30;6.50;;;3.37;;
83429;SDS011;73362;50.952;6.952;2024-01-15T13:31:58;10.13;;;3.90;;
83429;SDS011;73362;50.952;6.952;2024-01-15T13:34:26;5.53;;;3.10;;
83429;SDS011;73362;50.952;6.952;2024-01-15T13:36:54;3.77;;;3.07;;
83429;SDS011;73362;50.952;6.952;2024-01-15T13:39:22;5.23;;;3.10;;
83429;SDS011;73362;50.952;6.952;2024-01-15T13:41:51;3.60;;;2.80;;
83429;SDS011;73362;50.952;6.952;2024-01-15T13:44:19;5.27;;;2.90;;
83429;SDS011;73362;50.952;6.952;2024-01-15T13:46:47;3.93;;;2.90;;
83429;SDS011;73362;50.952;6.952;2024-01-15T13:49:15;4.37;;;2.67;;
83429;SDS011;73362;50.952;6.952;2024-01-15T13:51:43;3.87;;;3.43;;
83429;SDS011;73362;50.952;6.952;2024-01-15T13:54:11;2.37;;;2.17;;
83429;SDS011;73362;50.952;6.952;2024-01-15T13:56:39;4.77;;;2.97;;
83429;SDS011;73362;50.952;6.952;2024-01-15T13:59:07;4.67;;;2.33;;
83429;SDS011;73362;50.952;6.952;2024-01-15T14:01:35;3.50;;;2.03;;
83429;SDS011;73362;50.952;6.952;2024-01-15T14:04:03;2.33;;;2.07;;
83429;SDS011;73362;50.952;6.952;2024-01-15T14:06:31;3.27;;;1.70;;
83429;SDS011;73362;50.952;6.952;2024-01-15T14:08:59;2.00;;;1.73;;
83429;SDS011;73362;50.952;6.952;2024-01-15T14:11:28;1.33;;;1.30;;
83429;SDS011;73362;50.952;6.952;2024-01-15T14:13:56;2.60;;;1.80;;
83429;SDS011;73362;50.952;6.952;2024-01-15T14:16:24;2.70;;;1.80;;
83429;SDS011;73362;50.952;6.952;2024-01-15T14:18:52;2.00;;;1.77;;
83429;SDS011;73362;50.952;6.952;2024-01-15T14:21:20;2.20;;;1.90;;
83429;SDS011;73362;50.952;6.952;2024-01-15T14:23:48;2.40;;;1.80;;
83429;SDS011;73362;50.952;6.952;2024-01-15T14:26:16;3.33;;;2.13;;
83429;SDS011;73362;50.952;6.952;2024-01-15T14:28:45;1.80;;;1.60;;
83429;SDS011;73362;50.952;6.952;2024-01-15T14:31:13;2.77;;;2.07;;
83429;SDS011;73362;50.952;6.952;2024-01-15T14:33:41;2.10;;;2.00;;
83429;SDS011;73362;50.952;6.952;2024-01-15T14:36:09;2.07;;;1.73;;
83429;SDS011;73362;50.952;6.952;2024-01-15T14:38:37;3.53;;;1.80;;
83429;SDS011;73362;50.952;6.952;2024-01-15T14:41:05;2.23;;;2.03;;
83429;SDS011;73362;50.952;6.952;2024-01-15T14:43:33;4.23;;;2.53;;
83429;SDS011;73362;50.952;6.952;2024-01-15T14:46:01;3.33;;;2.37;;